Data for 01/08/2005

Time Sea-Level Adjusted Pressure Absolute Pressure Temperature Relative Humidity Dew Point   
(mb) (inHg) (mb) (inHg) (C) (F) (%) (C) (F)
00:05 1000 29.53 829 24.48 -14.1 6.6 90 -15.4 4.3
00:10 1000 29.53 829 24.48 -14.3 6.3 91 -15.5 4.2
00:15 1000 29.53 829 24.48 -14.1 6.7 91 -15.3 4.5
00:20 1000 29.53 829 24.48 -13.9 6.9 90 -15.2 4.6
00:25 1000 29.53 829 24.48 -14 6.8 90 -15.3 4.5
00:30 1000 29.53 829 24.48 -14.1 6.7 91 -15.3 4.5
00:35 1000 29.53 829 24.48 -13.8 7.1 91 -15 5
00:40 1000 29.53 829 24.48 -13.7 7.3 90 -15 5.1
00:45 1000 29.53 829 24.48 -13.5 7.6 90 -14.8 5.3
00:50 1000 29.53 829 24.48 -13.4 7.9 90 -14.7 5.5
00:55 1000 29.53 829 24.48 -13.5 7.7 90 -14.7 5.5
01:00 1000 29.53 829 24.48 -13.6 7.5 91 -14.8 5.3
01:05 1000 29.53 829 24.48 -13.6 7.5 90 -14.9 5.2
01:10 1000 29.53 829 24.48 -13.6 7.6 91 -14.8 5.4
01:15 1000 29.53 829 24.48 -13.5 7.7 90 -14.8 5.4
01:20 999 29.5 828 24.45 -13.6 7.5 91 -14.8 5.3
01:25 999 29.5 828 24.45 -13.5 7.7 91 -14.7 5.5
01:30 999 29.5 828 24.45 -13.5 7.6 90 -14.8 5.3
01:35 999 29.5 828 24.45 -13.4 7.8 90 -14.7 5.5
01:40 999 29.5 828 24.45 -13.3 8 90 -14.7 5.5
01:45 999 29.5 828 24.45 -13.3 8 89 -14.7 5.5
01:50 999 29.5 828 24.45 -13.4 8 90 -14.7 5.5
01:55 999 29.5 828 24.45 -13.1 8.4 88 -14.7 5.6
02:00 999 29.5 828 24.45 -12.8 9 87 -14.5 5.9
02:05 999 29.5 828 24.45 -12.9 8.7 88 -14.5 5.8
02:10 999 29.5 828 24.45 -12.9 8.8 88 -14.5 5.9
02:15 999 29.5 828 24.45 -12.8 9 87 -14.5 5.8
02:20 999 29.5 828 24.45 -12.8 8.9 87 -14.5 5.8
02:25 999 29.5 828 24.45 -13 8.6 87 -14.7 5.5
02:30 999 29.5 828 24.45 -13 8.6 87 -14.7 5.5
02:35 999 29.5 829 24.48 -12.9 8.8 86 -14.8 5.4
02:40 999 29.5 829 24.48 -12.9 8.8 86 -14.8 5.4
02:45 999 29.5 829 24.48 -12.9 8.8 86 -14.7 5.5
02:50 999 29.5 829 24.48 -13 8.6 87 -14.7 5.6
02:55 999 29.5 828 24.45 -13 8.6 87 -14.7 5.5
03:00 1000 29.53 829 24.48 -12.7 9.1 85 -14.7 5.6
03:05 999 29.5 829 24.48 -12.5 9.5 86 -14.4 6
03:10 999 29.5 828 24.45 -12.7 9.2 86 -14.5 5.9
03:15 999 29.5 828 24.45 -12.5 9.5 85 -14.5 5.9
03:20 999 29.5 828 24.45 -12.4 9.6 85 -14.5 5.9
03:25 999 29.5 828 24.45 -12.3 9.9 84 -14.4 6
03:30 999 29.5 828 24.45 -12.4 9.6 85 -14.5 5.9
03:35 999 29.5 828 24.45 -12.5 9.6 85 -14.5 5.8
03:40 999 29.5 828 24.45 -12.4 9.6 84 -14.6 5.7
03:45 999 29.5 828 24.45 -12.5 9.5 84 -14.7 5.6
03:50 999 29.5 828 24.45 -12.6 9.4 84 -14.8 5.4
03:55 999 29.5 828 24.45 -12.8 8.9 85 -14.8 5.3
04:00 999 29.5 828 24.45 -13 8.5 87 -14.8 5.4
04:05 999 29.5 828 24.45 -13.2 8.2 87 -14.9 5.2
04:10 999 29.5 828 24.45 -13.3 8.1 88 -14.9 5.2
04:15 999 29.5 828 24.45 -13.1 8.5 87 -14.8 5.4
04:20 999 29.5 829 24.48 -13 8.7 86 -14.9 5.3
04:25 999 29.5 829 24.48 -13.1 8.5 87 -14.9 5.3
04:30 999 29.5 828 24.45 -13.2 8.3 87 -15 5.1
04:35 999 29.5 828 24.45 -13.5 7.7 88 -15.1 4.9
04:40 999 29.5 829 24.48 -13.7 7.4 89 -15.1 4.8
04:45 999 29.5 829 24.48 -13.7 7.3 89 -15.1 4.8
04:50 999 29.5 829 24.48 -13.8 7.1 89 -15.2 4.6
04:55 999 29.5 829 24.48 -13.8 7.1 89 -15.2 4.6
05:00 999 29.5 829 24.48 -14 6.8 89 -15.4 4.3
05:05 999 29.5 829 24.48 -13.9 7.1 89 -15.3 4.5
05:10 999 29.5 828 24.45 -13.7 7.4 88 -15.2 4.6
05:15 999 29.5 828 24.45 -13.7 7.3 89 -15.1 4.8
05:20 999 29.5 828 24.45 -13.7 7.3 88 -15.3 4.5
05:25 999 29.5 828 24.45 -13.8 7.2 90 -15.2 4.7
05:30 999 29.5 828 24.45 -13.9 7.1 89 -15.3 4.5
05:35 999 29.5 828 24.45 -13.9 6.9 90 -15.3 4.5
05:40 999 29.5 828 24.45 -14 6.8 90 -15.3 4.4
05:45 999 29.5 828 24.45 -14 6.9 91 -15.2 4.7
05:50 999 29.5 828 24.45 -13.7 7.4 89 -15.1 4.8
05:55 999 29.5 828 24.45 -13.5 7.8 88 -15 4.9
06:00 999 29.5 828 24.45 -13.2 8.2 86 -15.1 4.7
06:05 999 29.5 828 24.45 -13.4 7.9 86 -15.3 4.5
06:10 999 29.5 828 24.45 -13.5 7.7 86 -15.3 4.4
06:15 999 29.5 829 24.48 -13.6 7.6 86 -15.4 4.3
06:20 1000 29.53 829 24.48 -13.6 7.5 85 -15.6 3.9
06:25 1000 29.53 829 24.48 -13.8 7.3 85 -15.7 3.7
06:30 1000 29.53 829 24.48 -13.8 7.1 87 -15.5 4.1
06:35 1000 29.53 829 24.48 -13.9 7 88 -15.5 4.1
06:40 1000 29.53 829 24.48 -14.1 6.7 89 -15.6 4
06:45 1000 29.53 829 24.48 -14.1 6.7 88 -15.6 3.9
06:50 1000 29.53 829 24.48 -14 6.7 88 -15.7 3.8
06:55 1000 29.53 829 24.48 -14.1 6.7 87 -15.7 3.7
07:00 1000 29.53 829 24.48 -14.3 6.3 88 -15.8 3.5
07:05 1000 29.53 829 24.48 -14.4 6.1 89 -15.8 3.5
07:10 1000 29.53 829 24.48 -14.5 5.9 90 -15.8 3.5
07:15 1000 29.53 829 24.48 -14.5 5.9 90 -15.8 3.6
07:20 1000 29.53 829 24.48 -14.3 6.2 90 -15.6 3.9
07:25 1000 29.53 829 24.48 -14.2 6.4 91 -15.4 4.3
07:30 1000 29.53 829 24.48 -14 6.8 90 -15.4 4.4
07:35 1000 29.53 829 24.48 -13.9 7 89 -15.3 4.5
07:40 1000 29.53 829 24.48 -13.4 7.8 87 -15.2 4.7
07:45 1000 29.53 829 24.48 -13.1 8.4 87 -14.8 5.3
07:50 1000 29.53 829 24.48 -13 8.7 86 -14.8 5.3
07:55 1000 29.53 829 24.48 -12.9 8.8 85 -14.9 5.1
08:00 1000 29.53 829 24.48 -12.7 9.1 84 -14.8 5.3
08:05 1000 29.53 830 24.51 -12.7 9.2 84 -14.9 5.3
08:10 1000 29.53 830 24.51 -12.7 9.1 84 -14.9 5.3
08:15 1001 29.56 830 24.51 -12.7 9.1 84 -14.9 5.2
08:20 1001 29.56 830 24.51 -12.6 9.4 83 -14.9 5.3
08:25 1001 29.56 830 24.51 -12.5 9.5 84 -14.7 5.6
08:30 1001 29.56 830 24.51 -12.8 9 86 -14.7 5.6
08:35 1001 29.56 830 24.51 -12.9 8.8 85 -14.9 5.2
08:40 1001 29.56 830 24.51 -12.9 8.8 85 -14.9 5.1
08:45 1001 29.56 830 24.51 -12.8 8.9 86 -14.7 5.5
08:50 1001 29.56 831 24.54 -12.9 8.8 86 -14.8 5.4
08:55 1002 29.59 831 24.54 -12.9 8.8 86 -14.8 5.3
09:00 1002 29.59 831 24.54 -12.9 8.8 86 -14.8 5.4
09:05 1002 29.59 831 24.54 -13 8.6 86 -14.9 5.2
09:10 1002 29.59 832 24.57 -13.1 8.4 86 -14.9 5.2
09:15 1003 29.62 832 24.57 -13.1 8.5 86 -14.9 5.1
09:20 1003 29.62 832 24.57 -13.2 8.2 86 -15 4.9
09:25 1003 29.62 832 24.57 -13.5 7.7 87 -15.2 4.6
09:30 1003 29.62 832 24.57 -13.4 8 86 -15.3 4.5
09:35 1003 29.62 832 24.57 -13.3 8.1 86 -15.2 4.7
09:40 1003 29.62 832 24.57 -13.2 8.2 86 -15.1 4.8
09:45 1003 29.62 832 24.57 -13.2 8.3 85 -15.2 4.6
09:50 1003 29.62 832 24.57 -13.4 7.9 85 -15.4 4.3
09:55 1003 29.62 832 24.57 -13.6 7.6 87 -15.3 4.4
10:00 1003 29.62 832 24.57 -13.4 7.8 87 -15.2 4.6
10:05 1003 29.62 832 24.57 -13.6 7.6 89 -15 4.9
10:10 1003 29.62 832 24.57 -13.3 8 89 -14.8 5.4
10:15 1003 29.62 833 24.6 -12.9 8.7 90 -14.2 6.5
10:20 1004 29.65 833 24.6 -12.6 9.3 88 -14.1 6.6
10:25 1004 29.65 833 24.6 -12.5 9.4 90 -13.9 7
10:30 1004 29.65 833 24.6 -12.3 9.8 90 -13.6 7.5
10:35 1004 29.65 833 24.6 -12.2 10 90 -13.6 7.5
10:40 1004 29.65 833 24.6 -12.3 9.8 90 -13.6 7.5
10:45 1004 29.65 833 24.6 -12.2 10.1 97 -12.6 9.3
10:50 1004 29.65 833 24.6 -11.9 10.7 98 -12.1 10.2
10:55 1004 29.65 833 24.6 -11.9 10.7 90 -13.2 8.3
11:00 1004 29.65 833 24.6 -12.2 10.1 91 -13.4 7.9
11:05 1004 29.65 833 24.6 -12.1 10.3 91 -13.2 8.2
11:10 1004 29.65 833 24.6 -12 10.5 91 -13.1 8.4
11:15 1004 29.65 833 24.6 -11.8 10.8 92 -12.8 9
11:20 1004 29.65 833 24.6 -11.4 11.5 93 -12.3 9.8
11:25 1004 29.65 833 24.6 -11 12.2 92 -12 10.4
11:30 1004 29.65 833 24.6 -10.8 12.6 93 -11.7 10.9
11:35 1004 29.65 833 24.6 -10.5 13.1 93 -11.4 11.5
11:40 1004 29.65 833 24.6 -10.2 13.6 94 -11.1 12.1
11:45 1004 29.65 833 24.6 -9.5 14.9 94 -10.3 13.4
11:50 1004 29.65 833 24.6 -9.2 15.5 94 -10 14
11:55 1004 29.65 833 24.6 -8.9 16 95 -9.6 14.7
12:00 1004 29.65 833 24.6 -8.4 16.9 95 -9 15.8
12:05 1004 29.65 833 24.6 -8.1 17.4 95 -8.8 16.2
12:10 1004 29.65 833 24.6 -7.8 17.9 95 -8.5 16.7
12:15 1004 29.65 833 24.6 -7.7 18.2 94 -8.5 16.7
12:20 1003 29.62 832 24.57 -7.6 18.3 95 -8.3 17.1
12:25 1003 29.62 832 24.57 -7.2 19 95 -7.9 17.8
12:30 1003 29.62 832 24.57 -7.1 19.3 94 -7.9 17.9
12:35 1003 29.62 832 24.57 -7.1 19.3 93 -8 17.5
12:40 1003 29.62 832 24.57 -6.9 19.6 94 -7.7 18.2
12:45 1003 29.62 832 24.57 -6.6 20.1 94 -7.5 18.5
12:50 1003 29.62 832 24.57 -6.3 20.7 95 -7 19.4
12:55 1003 29.62 832 24.57 -6.1 21.1 94 -6.9 19.6
13:00 1003 29.62 832 24.57 -5.8 21.5 93 -6.8 19.8
13:05 1003 29.62 832 24.57 -5.7 21.8 93 -6.6 20.2
13:10 1003 29.62 832 24.57 -5.2 22.6 93 -6.2 20.9
13:15 1003 29.62 832 24.57 -5 23 93 -5.9 21.3
13:20 1003 29.62 832 24.57 -4.8 23.4 94 -5.6 21.8
13:25 1003 29.62 833 24.6 -4.5 23.9 89 -6.1 21
13:30 1003 29.62 833 24.6 -5.1 22.8 81 -7.9 17.8
13:35 1003 29.62 832 24.57 -6.8 19.7 83 -9.3 15.3
13:40 1003 29.62 832 24.57 -8.2 17.3 85 -10.3 13.5
13:45 1003 29.62 832 24.57 -9.1 15.7 85 -11.1 12
13:50 1003 29.62 833 24.6 -9.5 14.9 86 -11.4 11.5
13:55 1003 29.62 833 24.6 -9.7 14.5 87 -11.5 11.2
14:00 1003 29.62 833 24.6 -9.7 14.5 87 -11.5 11.2
14:05 1003 29.62 832 24.57 -9.8 14.4 87 -11.6 11.1
14:10 1003 29.62 833 24.6 -9.8 14.3 87 -11.6 11.1
14:15 1004 29.65 833 24.6 -9.9 14.2 87 -11.7 10.9
14:20 1004 29.65 833 24.6 -10 14.1 87 -11.7 10.9
14:25 1004 29.65 833 24.6 -9.9 14.1 87 -11.8 10.8
14:30 1004 29.65 833 24.6 -9.9 14.1 86 -11.8 10.8
14:35 1004 29.65 833 24.6 -9.9 14.2 85 -11.9 10.6
14:40 1004 29.65 833 24.6 -9.9 14.1 85 -12 10.4
14:45 1004 29.65 833 24.6 -10.1 13.7 85 -12.2 10.1
14:50 1004 29.65 833 24.6 -10.3 13.5 85 -12.3 9.8
14:55 1004 29.65 833 24.6 -10.3 13.5 85 -12.4 9.6
15:00 1004 29.65 833 24.6 -10.4 13.3 85 -12.5 9.6
15:05 1004 29.65 833 24.6 -10.5 13.1 86 -12.4 9.6
15:10 1004 29.65 834 24.63 -10.7 12.7 85 -12.8 8.9
15:15 1004 29.65 834 24.63 -10.8 12.5 86 -12.8 9
15:20 1004 29.65 834 24.63 -10.7 12.8 86 -12.6 9.3
15:25 1005 29.68 834 24.63 -10.7 12.8 86 -12.6 9.3
15:30 1005 29.68 834 24.63 -10.7 12.7 86 -12.7 9.1
15:35 1005 29.68 834 24.63 -10.8 12.5 86 -12.7 9.1
15:40 1005 29.68 834 24.63 -10.9 12.4 86 -12.8 8.9
15:45 1005 29.68 834 24.63 -11.1 12.1 87 -12.9 8.8
15:50 1005 29.68 834 24.63 -11.2 11.9 87 -12.9 8.7
15:55 1005 29.68 834 24.63 -11 12.2 87 -12.8 9
16:00 1005 29.68 834 24.63 -11 12.2 86 -12.9 8.8
16:05 1005 29.68 834 24.63 -11.1 12.1 87 -12.8 9
16:10 1005 29.68 834 24.63 -11.1 12.1 86 -12.9 8.7
16:15 1005 29.68 834 24.63 -11.3 11.7 86 -13.1 8.4
16:20 1005 29.68 834 24.63 -11.5 11.3 87 -13.2 8.2
16:25 1005 29.68 835 24.66 -11.5 11.3 86 -13.4 7.9
16:30 1006 29.71 835 24.66 -11.6 11 86 -13.5 7.7
16:35 1006 29.71 835 24.66 -11.8 10.8 87 -13.5 7.8
16:40 1006 29.71 835 24.66 -11.9 10.5 88 -13.6 7.6
16:45 1006 29.71 835 24.66 -12 10.4 88 -13.6 7.5
16:50 1006 29.71 835 24.66 -12 10.5 88 -13.6 7.6
16:55 1006 29.71 835 24.66 -11.9 10.5 89 -13.4 7.8
17:00 1006 29.71 835 24.66 -11.9 10.5 87 -13.6 7.4
17:05 1006 29.71 835 24.66 -12.2 10.1 88 -13.8 7.1
17:10 1006 29.71 835 24.66 -12.2 10 88 -13.8 7.2
17:15 1006 29.71 835 24.66 -12.1 10.2 88 -13.8 7.2
17:20 1006 29.71 836 24.69 -12.2 10.1 88 -13.8 7.2
17:25 1006 29.71 836 24.69 -12.2 10 88 -13.8 7.1
17:30 1006 29.71 835 24.66 -12.2 10 89 -13.8 7.2
17:35 1006 29.71 835 24.66 -12.3 9.8 89 -13.8 7.2
17:40 1006 29.71 836 24.69 -12.2 10 89 -13.7 7.4
17:45 1006 29.71 836 24.69 -12.2 10.1 88 -13.8 7.2
17:50 1006 29.71 836 24.69 -12.3 9.9 88 -13.9 7
17:55 1006 29.71 836 24.69 -12.4 9.6 89 -13.9 7
18:00 1006 29.71 835 24.66 -12.7 9.1 90 -14.1 6.7
18:05 1006 29.71 835 24.66 -12.7 9.1 91 -14 6.9
18:10 1006 29.71 835 24.66 -12.6 9.4 90 -13.9 7
18:15 1006 29.71 836 24.69 -12.4 9.7 90 -13.7 7.4
18:20 1006 29.71 836 24.69 -12.3 9.8 90 -13.7 7.4
18:25 1006 29.71 835 24.66 -12.3 9.8 90 -13.6 7.4
18:30 1006 29.71 835 24.66 -12.1 10.1 89 -13.6 7.5
18:35 1006 29.71 835 24.66 -12.2 10.1 89 -13.7 7.3
18:40 1006 29.71 835 24.66 -12.4 9.7 90 -13.8 7.2
18:45 1006 29.71 835 24.66 -12.5 9.4 90 -13.8 7.1
18:50 1006 29.71 835 24.66 -12.5 9.6 89 -13.9 7
18:55 1006 29.71 835 24.66 -12.3 9.8 88 -14 6.8
19:00 1006 29.71 835 24.66 -12.5 9.5 88 -14 6.8
19:05 1006 29.71 836 24.69 -12.5 9.5 89 -14 6.8
19:10 1006 29.71 836 24.69 -12.4 9.7 87 -14.1 6.7
19:15 1006 29.71 836 24.69 -12.3 9.9 86 -14.2 6.4
19:20 1006 29.71 836 24.69 -12.3 9.8 86 -14.2 6.5
19:25 1007 29.74 836 24.69 -12.5 9.4 87 -14.3 6.3
19:30 1007 29.74 836 24.69 -12.7 9.1 87 -14.4 6.1
19:35 1007 29.74 836 24.69 -12.7 9.1 87 -14.5 5.9
19:40 1006 29.71 836 24.69 -12.9 8.9 87 -14.5 5.8
19:45 1006 29.71 835 24.66 -12.8 8.9 87 -14.6 5.8
19:50 1006 29.71 836 24.69 -12.8 8.9 86 -14.7 5.6
19:55 1007 29.74 836 24.69 -12.9 8.8 86 -14.8 5.3
20:00 1007 29.74 836 24.69 -13 8.6 86 -14.9 5.1
20:05 1007 29.74 836 24.69 -13.1 8.5 86 -15 5
20:10 1007 29.74 836 24.69 -13.1 8.4 87 -14.9 5.1
20:15 1007 29.74 836 24.69 -13.3 8.1 87 -15 5
20:20 1006 29.71 836 24.69 -13.7 7.3 89 -15.1 4.7
20:25 1006 29.71 836 24.69 -13.8 7.2 89 -15.3 4.5
20:30 1007 29.74 836 24.69 -13.9 7 90 -15.2 4.7
20:35 1007 29.74 836 24.69 -13.7 7.3 88 -15.3 4.5
20:40 1007 29.74 836 24.69 -13.7 7.4 89 -15.2 4.7
20:45 1007 29.74 836 24.69 -13.5 7.7 88 -15.1 4.7
20:50 1007 29.74 836 24.69 -13.4 7.9 87 -15.1 4.9
20:55 1007 29.74 836 24.69 -13.4 7.8 87 -15.2 4.7
21:00 1007 29.74 836 24.69 -13.4 8 86 -15.2 4.7
21:05 1007 29.74 837 24.72 -13.4 7.8 86 -15.2 4.6
21:10 1007 29.74 837 24.72 -13.6 7.5 87 -15.3 4.4
21:15 1008 29.77 837 24.72 -13.7 7.4 88 -15.3 4.4
21:20 1008 29.77 837 24.72 -13.6 7.6 87 -15.3 4.4
21:25 1007 29.74 837 24.72 -13.6 7.5 87 -15.4 4.4
21:30 1007 29.74 837 24.72 -13.9 6.9 89 -15.4 4.2
21:35 1007 29.74 836 24.69 -13.9 6.9 88 -15.6 4
21:40 1007 29.74 836 24.69 -14 6.8 89 -15.5 4.1
21:45 1007 29.74 836 24.69 -13.9 7 88 -15.4 4.2
21:50 1007 29.74 837 24.72 -13.7 7.4 87 -15.4 4.3
21:55 1008 29.77 837 24.72 -13.6 7.4 86 -15.4 4.2
22:00 1008 29.77 837 24.72 -13.7 7.4 86 -15.5 4.1
22:05 1008 29.77 837 24.72 -13.7 7.4 86 -15.5 4.1
22:10 1008 29.77 837 24.72 -13.8 7.3 86 -15.6 4
22:15 1008 29.77 837 24.72 -13.8 7.1 86 -15.7 3.8
22:20 1008 29.77 837 24.72 -14 6.8 86 -15.8 3.6
22:25 1008 29.77 837 24.72 -14.1 6.6 86 -15.9 3.4
22:30 1008 29.77 837 24.72 -14.1 6.7 86 -15.8 3.5
22:35 1008 29.77 837 24.72 -14 6.8 86 -15.9 3.4
22:40 1008 29.77 837 24.72 -14.1 6.7 86 -15.9 3.3
22:45 1008 29.77 837 24.72 -14.2 6.5 86 -16 3.1
22:50 1008 29.77 837 24.72 -14.2 6.4 85 -16.2 2.8
22:55 1008 29.77 837 24.72 -14.3 6.3 85 -16.2 2.8
23:00 1008 29.77 837 24.72 -14.3 6.2 85 -16.3 2.7
23:05 1008 29.77 837 24.72 -14.3 6.2 86 -16.3 2.7
23:10 1008 29.77 837 24.72 -14.4 6 86 -16.4 2.5
23:15 1008 29.77 837 24.72 -14.6 5.7 87 -16.3 2.6
23:20 1008 29.77 838 24.75 -14.5 6 86 -16.3 2.6
23:25 1009 29.8 838 24.75 -14.3 6.2 85 -16.3 2.6
23:30 1009 29.8 838 24.75 -14.3 6.2 85 -16.3 2.6
23:35 1009 29.8 838 24.75 -14.3 6.2 85 -16.4 2.5
23:40 1009 29.8 839 24.78 -14.4 6.2 85 -16.4 2.5
23:45 1009 29.8 839 24.78 -14.4 6 85 -16.5 2.4
23:50 1009 29.8 839 24.78 -14.5 6 84 -16.6 2
23:55 1009 29.8 839 24.78 -14.8 5.4 86 -16.6 2.1
24:00 1009 29.8 839 24.78 -14.7 5.6 85 -16.7 2